地図

経路データ

SID SEASON NUMBER BASIN SUBBASIN NAME ISO_TIME NATURE LAT LON WMO_WIND WMO_PRES WMO_AGENCY TRACK_TYPE DIST2LAND LANDFALL IFLAG USA_AGENCY USA_ATCF_ID USA_LAT USA_LON USA_RECORD USA_STATUS USA_WIND USA_PRES USA_SSHS USA_R34_NE USA_R34_SE USA_R34_SW USA_R34_NW USA_R50_NE USA_R50_SE USA_R50_SW USA_R50_NW USA_R64_NE USA_R64_SE USA_R64_SW USA_R64_NW USA_POCI USA_ROCI USA_RMW USA_EYE TOKYO_LAT TOKYO_LON TOKYO_GRADE TOKYO_WIND TOKYO_PRES TOKYO_R50_DIR TOKYO_R50_LONG TOKYO_R50_SHORT TOKYO_R30_DIR TOKYO_R30_LONG TOKYO_R30_SHORT TOKYO_LAND CMA_LAT CMA_LON CMA_CAT CMA_WIND CMA_PRES HKO_LAT HKO_LON HKO_CAT HKO_WIND HKO_PRES NEWDELHI_LAT NEWDELHI_LON NEWDELHI_GRADE NEWDELHI_WIND NEWDELHI_PRES NEWDELHI_CI NEWDELHI_DP NEWDELHI_POCI REUNION_LAT REUNION_LON REUNION_TYPE REUNION_WIND REUNION_PRES REUNION_TNUM REUNION_CI REUNION_RMW REUNION_R34_NE REUNION_R34_SE REUNION_R34_SW REUNION_R34_NW REUNION_R50_NE REUNION_R50_SE REUNION_R50_SW REUNION_R50_NW REUNION_R64_NE REUNION_R64_SE REUNION_R64_SW REUNION_R64_NW BOM_LAT BOM_LON BOM_TYPE BOM_WIND BOM_PRES BOM_TNUM BOM_CI BOM_RMW BOM_R34_NE BOM_R34_SE BOM_R34_SW BOM_R34_NW BOM_R50_NE BOM_R50_SE BOM_R50_SW BOM_R50_NW BOM_R64_NE BOM_R64_SE BOM_R64_SW BOM_R64_NW BOM_ROCI BOM_POCI BOM_EYE BOM_POS_METHOD BOM_PRES_METHOD NADI_LAT NADI_LON NADI_CAT NADI_WIND NADI_PRES WELLINGTON_LAT WELLINGTON_LON WELLINGTON_WIND WELLINGTON_PRES DS824_LAT DS824_LON DS824_STAGE DS824_WIND DS824_PRES TD9636_LAT TD9636_LON TD9636_STAGE TD9636_WIND TD9636_PRES TD9635_LAT TD9635_LON TD9635_WIND TD9635_PRES TD9635_ROCI NEUMANN_LAT NEUMANN_LON NEUMANN_CLASS NEUMANN_WIND NEUMANN_PRES MLC_LAT MLC_LON MLC_CLASS MLC_WIND MLC_PRES USA_GUST BOM_GUST BOM_GUST_PER REUNION_GUST REUNION_GUST_PER USA_SEAHGT USA_SEARAD_NE USA_SEARAD_SE USA_SEARAD_SW USA_SEARAD_NW STORM_SPEED STORM_DIR
1916312N15095 1916 67 NI BB NOT_NAMED 1916-11-07 00:00:00 TS 15.0000 95.0000 main 78 64 _________O____ -1 15.0000 95.0000 TC 34 7 300
1916312N15095 1916 67 NI BB NOT_NAMED 1916-11-07 03:00:00 TS 15.1684 94.7018 main 64 44 _________PO___ -1 15.2527 94.5527 TC 36 15.0000 95.0000 2 8 299
1916312N15095 1916 67 NI BB NOT_NAMED 1916-11-07 06:00:00 TS 15.3934 94.2771 main 46 39 _________OP___ -1 15.5000 94.1000 TC 39 15.2335 94.5427 2 10 299
1916312N15095 1916 67 NI BB NOT_NAMED 1916-11-07 09:00:00 TS 15.6271 93.8333 main 61 54 _________PP___ -1 15.7425 93.6424 TC 42 15.4733 94.0880 2 10 300
1916312N15095 1916 67 NI BB NOT_NAMED 1916-11-07 12:00:00 TS 15.8632 93.4196 main 86 86 _________OP___ -1 16.0000 93.2000 TC 45 15.7264 93.6393 2 10 303
1916312N15095 1916 67 NI BB NOT_NAMED 1916-11-07 15:00:00 TS 16.1462 92.9962 main 128 128 _________PO___ -1 16.2924 92.7924 TC 45 16.0000 93.2000 3 10 306
1916312N15095 1916 67 NI BB NOT_NAMED 1916-11-07 18:00:00 TS 16.4488 92.5867 main 176 176 _________OP___ -1 16.6000 92.4000 TC 45 16.2976 92.7735 3 10 308
1916312N15095 1916 67 NI BB NOT_NAMED 1916-11-07 21:00:00 TS 16.7611 92.1775 main 226 226 _________PP___ -1 16.9150 91.9925 TC 45 16.6073 92.3626 3 10 308
1916312N15095 1916 67 NI BB NOT_NAMED 1916-11-08 00:00:00 TS 17.0566 91.7852 main 274 274 _________OP___ -1 17.2000 91.6000 TC 45 16.9133 91.9704 3 9 307
1916312N15095 1916 67 NI BB NOT_NAMED 1916-11-08 03:00:00 TS 17.3037 91.4174 main 308 308 _________PO___ -1 17.4074 91.2348 TC 45 17.2000 91.6000 3 8 304
1916312N15095 1916 67 NI BB NOT_NAMED 1916-11-08 06:00:00 TS 17.5231 91.0724 main 321 321 _________OP___ -1 17.6000 90.9000 TC 45 17.4463 91.2448 3 8 306
1916312N15095 1916 67 NI BB NOT_NAMED 1916-11-08 09:00:00 TS 17.7610 90.7522 main 334 334 _________PP___ -1 17.8499 90.5925 TC 45 17.6722 90.9119 3 8 308
1916312N15095 1916 67 NI BB NOT_NAMED 1916-11-08 12:00:00 TS 17.9935 90.4490 main 352 344 _________OP___ -1 18.1000 90.3000 TC 45 17.8870 90.5980 3 7 307
1916312N15095 1916 67 NI BB NOT_NAMED 1916-11-08 15:00:00 TS 18.2000 90.1462 main 360 352 _________PO___ -1 18.3000 89.9924 TC 45 18.1000 90.3000 3 7 306
1916312N15095 1916 67 NI BB NOT_NAMED 1916-11-08 18:00:00 TS 18.3981 89.8610 main 362 339 _________OP___ -1 18.5000 89.7000 TC 45 18.2962 90.0220 3 7 309
1916312N15095 1916 67 NI BB NOT_NAMED 1916-11-08 21:00:00 TS 18.6084 89.6067 main 339 314 _________PP___ -1 18.7199 89.4572 TC 45 18.4970 89.7563 3 7 313
1916312N15095 1916 67 NI BB NOT_NAMED 1916-11-09 00:00:00 TS 18.8622 89.3437 main 302 268 _________OP___ -1 19.0000 89.2000 TC 45 18.7243 89.4874 3 8 317
1916312N15095 1916 67 NI BB NOT_NAMED 1916-11-09 03:00:00 TS 19.1888 89.0325 main 268 222 _________PO___ -1 19.3775 88.8650 TC 45 19.0000 89.2000 3 10 318
1916312N15095 1916 67 NI BB NOT_NAMED 1916-11-09 06:00:00 TS 19.5649 88.6678 main 215 162 _________OP___ -1 19.8000 88.5000 TC 45 19.3298 88.8356 3 10 318
1916312N15095 1916 67 NI BB NOT_NAMED 1916-11-09 09:00:00 TS 19.9478 88.2954 main 162 113 _________PP___ -1 20.1850 88.1349 TC 45 19.7107 88.4559 3 11 320
1916312N15095 1916 67 NI BB NOT_NAMED 1916-11-09 12:00:00 TS 20.3680 87.9491 main 99 72 _________OP___ -1 20.6000 87.8000 TC 45 20.1361 88.0982 3 11 326
1916312N15095 1916 67 NI BB NOT_NAMED 1916-11-09 15:00:00 TS 20.8387 87.6488 main 62 33 _________PO___ -1 21.0775 87.4977 TC 41 20.6000 87.8000 3 11 334
1916312N15095 1916 67 NI BB NOT_NAMED 1916-11-09 18:00:00 TS 21.3666 87.4209 main 22 0 _________OP___ -1 21.6000 87.3000 TC 37 21.1332 87.5418 3 12 343
1916312N15095 1916 67 NI BB NOT_NAMED 1916-11-09 21:00:00 TS 21.9371 87.2904 main 0 0 _________PP___ -1 22.1799 87.2249 TC 33 21.6943 87.3560 3 11 353
1916312N15095 1916 67 NI BB NOT_NAMED 1916-11-10 00:00:00 TS 22.4666 87.2835 main 0 0 _________OP___ -1 22.7000 87.3000 TC 30 22.2332 87.2670 3 10 6
1916312N15095 1916 67 NI BB NOT_NAMED 1916-11-10 03:00:00 TS 22.8762 87.3987 main 0 0 _________PO___ -1 23.0525 87.4974 TC 30 22.7000 87.3000 1 8 24
1916312N15095 1916 67 NI BB NOT_NAMED 1916-11-10 06:00:00 TS 23.1746 87.6282 main 0 0 _________OP___ -1 23.3000 87.8000 TC 30 23.0493 87.4564 1 7 42
1916312N15095 1916 67 NI BB NOT_NAMED 1916-11-10 09:00:00 TS 23.4212 87.9307 main 0 0 _________PP___ -1 23.5225 88.1276 TC 30 23.3199 87.7338 1 8 54
1916312N15095 1916 67 NI BB NOT_NAMED 1916-11-10 12:00:00 TS 23.6153 88.2972 main 0 0 _________OP___ -1 23.7000 88.5000 TC 30 23.5305 88.0943 1 8 63
1916312N15095 1916 67 NI BB NOT_NAMED 1916-11-10 15:00:00 TS 23.7824 88.6925 main 0 0 _________PO___ -1 23.8649 88.8851 TC 30 23.7000 88.5000 1 8 68
1916312N15095 1916 67 NI BB NOT_NAMED 1916-11-10 18:00:00 TS 23.9115 89.0821 main 0 0 _________OP___ -1 24.0000 89.3000 TC 30 23.8451 88.9186 1 8 72
1916312N15095 1916 67 NI BB NOT_NAMED 1916-11-10 21:00:00 TS 24.0271 89.5025 main 0 0 _________PP___ -1 24.1078 89.7424 TC 30 23.9733 89.3426 1 8 74
1916312N15095 1916 67 NI BB NOT_NAMED 1916-11-11 00:00:00 TS 24.1266 89.9135 main 0 0 _________OP___ -1 24.2000 90.2000 TC 30 24.0899 89.7702 1 7 75
1916312N15095 1916 67 NI BB NOT_NAMED 1916-11-11 03:00:00 NR 24.2000 90.2000 main 0 __________O___ -1 TC 24.2000 90.2000 1 5 74

IBTrACS Databaseについて

本データベースは、米国NOAAが公開する1842年以降の世界の熱帯低気圧のベストトラックデータアーカイブInternational Best Track Archive for Climate Stewardship (IBTrACS)を、ウェブで閲覧しやすい形式に変換したものです。

最終更新日:2021-10-08